sensor_id;sensor_type;location;lat;lon;timestamp;temperature;humidity
46123;DHT22;31856;-35.404;149.120;2023-03-23T00:01:30;16.80;87.80
46123;DHT22;31856;-35.404;149.120;2023-03-23T00:04:03;16.80;87.90
46123;DHT22;31856;-35.404;149.120;2023-03-23T00:06:31;16.80;87.90
46123;DHT22;31856;-35.404;149.120;2023-03-23T00:09:01;16.70;88.00
46123;DHT22;31856;-35.404;149.120;2023-03-23T00:11:31;16.70;88.10
46123;DHT22;31856;-35.404;149.120;2023-03-23T00:13:59;16.70;88.10
46123;DHT22;31856;-35.404;149.120;2023-03-23T03:11:03;18.40;87.00
46123;DHT22;31856;-35.404;149.120;2023-03-23T03:13:35;18.60;86.90
46123;DHT22;31856;-35.404;149.120;2023-03-23T03:16:20;18.70;86.90
46123;DHT22;31856;-35.404;149.120;2023-03-23T03:18:52;18.80;86.60
46123;DHT22;31856;-35.404;149.120;2023-03-23T03:21:23;18.80;86.10
46123;DHT22;31856;-35.404;149.120;2023-03-23T03:23:52;18.80;85.50
46123;DHT22;31856;-35.404;149.120;2023-03-23T03:26:20;18.90;85.30
46123;DHT22;31856;-35.404;149.120;2023-03-23T03:28:55;18.90;85.40
46123;DHT22;31856;-35.404;149.120;2023-03-23T03:31:28;19.00;85.80
46123;DHT22;31856;-35.404;149.120;2023-03-23T03:33:56;19.10;86.20
46123;DHT22;31856;-35.404;149.120;2023-03-23T03:36:25;19.10;86.00
46123;DHT22;31856;-35.404;149.120;2023-03-23T03:38:53;19.20;85.50
46123;DHT22;31856;-35.404;149.120;2023-03-23T03:41:23;19.30;85.50
46123;DHT22;31856;-35.404;149.120;2023-03-23T03:43:51;19.40;85.10
46123;DHT22;31856;-35.404;149.120;2023-03-23T03:46:18;19.50;84.60
46123;DHT22;31856;-35.404;149.120;2023-03-23T03:48:46;19.50;84.40
46123;DHT22;31856;-35.404;149.120;2023-03-23T03:51:13;19.50;84.30
46123;DHT22;31856;-35.404;149.120;2023-03-23T03:53:40;19.40;83.80
46123;DHT22;31856;-35.404;149.120;2023-03-23T03:56:07;19.30;83.50
46123;DHT22;31856;-35.404;149.120;2023-03-23T03:58:35;19.30;83.30
46123;DHT22;31856;-35.404;149.120;2023-03-23T04:01:02;19.50;83.40
46123;DHT22;31856;-35.404;149.120;2023-03-23T04:03:30;19.70;83.40
46123;DHT22;31856;-35.404;149.120;2023-03-23T04:44:42;20.50;78.30
46123;DHT22;31856;-35.404;149.120;2023-03-23T04:47:20;20.70;78.30
46123;DHT22;31856;-35.404;149.120;2023-03-23T04:49:47;20.60;77.80
46123;DHT22;31856;-35.404;149.120;2023-03-23T04:52:15;20.50;78.00
46123;DHT22;31856;-35.404;149.120;2023-03-23T04:54:42;20.30;77.60
46123;DHT22;31856;-35.404;149.120;2023-03-23T04:57:13;20.20;77.20
46123;DHT22;31856;-35.404;149.120;2023-03-23T04:59:42;20.10;77.40
46123;DHT22;31856;-35.404;149.120;2023-03-23T05:02:10;20.10;77.60
46123;DHT22;31856;-35.404;149.120;2023-03-23T05:04:39;20.10;77.10
46123;DHT22;31856;-35.404;149.120;2023-03-23T05:07:10;20.10;77.00
46123;DHT22;31856;-35.404;149.120;2023-03-23T05:09:37;20.30;77.70
46123;DHT22;31856;-35.404;149.120;2023-03-23T05:12:05;20.30;76.70
46123;DHT22;31856;-35.404;149.120;2023-03-23T05:14:33;20.40;75.90
46123;DHT22;31856;-35.404;149.120;2023-03-23T05:17:01;20.50;76.40
46123;DHT22;31856;-35.404;149.120;2023-03-23T05:19:28;20.40;75.90
46123;DHT22;31856;-35.404;149.120;2023-03-23T05:21:59;20.30;75.70
46123;DHT22;31856;-35.404;149.120;2023-03-23T05:24:32;20.30;75.90
46123;DHT22;31856;-35.404;149.120;2023-03-23T05:26:59;20.30;76.60
46123;DHT22;31856;-35.404;149.120;2023-03-23T05:29:27;20.20;77.50
46123;DHT22;31856;-35.404;149.120;2023-03-23T05:31:56;20.20;77.10
46123;DHT22;31856;-35.404;149.120;2023-03-23T05:34:26;20.30;76.50
46123;DHT22;31856;-35.404;149.120;2023-03-23T05:36:55;20.50;76.40
46123;DHT22;31856;-35.404;149.120;2023-03-23T05:39:31;20.70;76.60
46123;DHT22;31856;-35.404;149.120;2023-03-23T05:41:59;20.70;75.80
46123;DHT22;31856;-35.404;149.120;2023-03-23T05:44:26;20.50;74.50
46123;DHT22;31856;-35.404;149.120;2023-03-23T05:46:54;20.40;74.30
46123;DHT22;31856;-35.404;149.120;2023-03-23T05:49:21;20.30;74.60
46123;DHT22;31856;-35.404;149.120;2023-03-23T05:51:51;20.10;75.90
46123;DHT22;31856;-35.404;149.120;2023-03-23T06:00:33;19.90;76.70
46123;DHT22;31856;-35.404;149.120;2023-03-23T06:03:01;20.00;76.70
46123;DHT22;31856;-35.404;149.120;2023-03-23T06:05:28;20.20;75.80
46123;DHT22;31856;-35.404;149.120;2023-03-23T06:07:56;20.20;75.00
46123;DHT22;31856;-35.404;149.120;2023-03-23T06:10:24;20.20;75.10
46123;DHT22;31856;-35.404;149.120;2023-03-23T06:12:52;20.30;74.90
46123;DHT22;31856;-35.404;149.120;2023-03-23T06:15:19;20.40;74.80
46123;DHT22;31856;-35.404;149.120;2023-03-23T06:17:46;20.50;74.10
46123;DHT22;31856;-35.404;149.120;2023-03-23T06:20:14;20.60;74.30
46123;DHT22;31856;-35.404;149.120;2023-03-23T06:22:41;20.70;73.80
46123;DHT22;31856;-35.404;149.120;2023-03-23T06:25:09;20.80;74.80
46123;DHT22;31856;-35.404;149.120;2023-03-23T06:27:39;20.90;73.90
46123;DHT22;31856;-35.404;149.120;2023-03-23T06:30:07;21.00;73.10
46123;DHT22;31856;-35.404;149.120;2023-03-23T06:32:35;21.00;73.10
46123;DHT22;31856;-35.404;149.120;2023-03-23T06:35:02;21.10;72.40
46123;DHT22;31856;-35.404;149.120;2023-03-23T06:37:30;21.10;72.40
46123;DHT22;31856;-35.404;149.120;2023-03-23T06:39:57;21.20;72.70
46123;DHT22;31856;-35.404;149.120;2023-03-23T06:42:25;21.30;72.80
46123;DHT22;31856;-35.404;149.120;2023-03-23T06:44:52;21.30;72.50
46123;DHT22;31856;-35.404;149.120;2023-03-23T06:47:23;21.40;71.60
46123;DHT22;31856;-35.404;149.120;2023-03-23T06:49:51;21.30;72.20
46123;DHT22;31856;-35.404;149.120;2023-03-23T06:52:18;21.40;72.00
46123;DHT22;31856;-35.404;149.120;2023-03-23T06:54:45;21.40;72.30
46123;DHT22;31856;-35.404;149.120;2023-03-23T06:57:13;21.40;72.40
46123;DHT22;31856;-35.404;149.120;2023-03-23T06:59:40;21.40;72.40
46123;DHT22;31856;-35.404;149.120;2023-03-23T07:02:09;21.40;72.30
46123;DHT22;31856;-35.404;149.120;2023-03-23T07:04:37;21.40;72.50
46123;DHT22;31856;-35.404;149.120;2023-03-23T07:07:08;21.30;72.10
46123;DHT22;31856;-35.404;149.120;2023-03-23T07:09:35;21.30;71.90
46123;DHT22;31856;-35.404;149.120;2023-03-23T07:12:03;21.20;71.40
46123;DHT22;31856;-35.404;149.120;2023-03-23T07:14:30;21.20;71.60
46123;DHT22;31856;-35.404;149.120;2023-03-23T07:16:58;21.10;71.80
46123;DHT22;31856;-35.404;149.120;2023-03-23T07:19:26;21.00;71.90
46123;DHT22;31856;-35.404;149.120;2023-03-23T07:21:54;21.00;72.40
46123;DHT22;31856;-35.404;149.120;2023-03-23T07:24:23;20.90;72.80
46123;DHT22;31856;-35.404;149.120;2023-03-23T07:26:51;20.80;71.60
46123;DHT22;31856;-35.404;149.120;2023-03-23T07:29:19;20.70;70.80
46123;DHT22;31856;-35.404;149.120;2023-03-23T07:31:50;20.60;71.00
46123;DHT22;31856;-35.404;149.120;2023-03-23T07:34:22;20.50;72.20
46123;DHT22;31856;-35.404;149.120;2023-03-23T07:36:50;20.50;72.80
46123;DHT22;31856;-35.404;149.120;2023-03-23T07:39:21;20.40;73.30
46123;DHT22;31856;-35.404;149.120;2023-03-23T07:41:50;20.30;74.10
46123;DHT22;31856;-35.404;149.120;2023-03-23T07:44:17;20.20;74.40
46123;DHT22;31856;-35.404;149.120;2023-03-23T07:46:45;20.20;75.10
46123;DHT22;31856;-35.404;149.120;2023-03-23T07:49:13;20.10;75.50
46123;DHT22;31856;-35.404;149.120;2023-03-23T07:51:40;20.00;75.90
46123;DHT22;31856;-35.404;149.120;2023-03-23T07:54:08;19.80;75.80
46123;DHT22;31856;-35.404;149.120;2023-03-23T07:56:36;19.80;75.90
46123;DHT22;31856;-35.404;149.120;2023-03-23T07:59:03;19.70;76.20
46123;DHT22;31856;-35.404;149.120;2023-03-23T08:01:31;19.70;76.70
46123;DHT22;31856;-35.404;149.120;2023-03-23T08:03:59;19.60;77.40
46123;DHT22;31856;-35.404;149.120;2023-03-23T08:06:26;19.40;77.00
46123;DHT22;31856;-35.404;149.120;2023-03-23T08:08:54;19.40;76.80
46123;DHT22;31856;-35.404;149.120;2023-03-23T08:11:21;19.30;76.80
46123;DHT22;31856;-35.404;149.120;2023-03-23T08:13:48;19.30;76.80
46123;DHT22;31856;-35.404;149.120;2023-03-23T08:16:16;19.20;77.60
46123;DHT22;31856;-35.404;149.120;2023-03-23T08:18:45;19.10;77.90
46123;DHT22;31856;-35.404;149.120;2023-03-23T08:21:13;19.10;77.90
46123;DHT22;31856;-35.404;149.120;2023-03-23T08:23:40;19.00;77.90
46123;DHT22;31856;-35.404;149.120;2023-03-23T08:26:08;18.90;78.10
46123;DHT22;31856;-35.404;149.120;2023-03-23T08:28:36;18.80;77.90
46123;DHT22;31856;-35.404;149.120;2023-03-23T08:31:13;18.70;78.20
46123;DHT22;31856;-35.404;149.120;2023-03-23T08:33:41;18.70;78.50
46123;DHT22;31856;-35.404;149.120;2023-03-23T08:36:08;18.60;78.60
46123;DHT22;31856;-35.404;149.120;2023-03-23T08:38:36;18.60;78.90
46123;DHT22;31856;-35.404;149.120;2023-03-23T08:41:04;18.50;79.50
46123;DHT22;31856;-35.404;149.120;2023-03-23T08:43:32;18.40;79.80
46123;DHT22;31856;-35.404;149.120;2023-03-23T08:45:59;18.40;79.80
46123;DHT22;31856;-35.404;149.120;2023-03-23T08:48:33;18.30;80.10
46123;DHT22;31856;-35.404;149.120;2023-03-23T08:51:02;18.30;80.30
46123;DHT22;31856;-35.404;149.120;2023-03-23T08:53:30;18.20;80.40
46123;DHT22;31856;-35.404;149.120;2023-03-23T08:56:07;18.10;80.70
46123;DHT22;31856;-35.404;149.120;2023-03-23T08:58:35;18.00;80.70
46123;DHT22;31856;-35.404;149.120;2023-03-23T09:01:03;18.00;80.70
46123;DHT22;31856;-35.404;149.120;2023-03-23T09:03:31;18.00;80.60
46123;DHT22;31856;-35.404;149.120;2023-03-23T09:05:59;17.90;80.90
46123;DHT22;31856;-35.404;149.120;2023-03-23T09:08:28;17.90;81.20
46123;DHT22;31856;-35.404;149.120;2023-03-23T09:11:02;17.80;81.20
46123;DHT22;31856;-35.404;149.120;2023-03-23T09:13:30;17.80;81.30
46123;DHT22;31856;-35.404;149.120;2023-03-23T09:15:57;17.80;81.40
46123;DHT22;31856;-35.404;149.120;2023-03-23T09:18:25;17.80;81.30
46123;DHT22;31856;-35.404;149.120;2023-03-23T09:20:53;17.70;81.40
46123;DHT22;31856;-35.404;149.120;2023-03-23T09:23:20;17.60;81.70
46123;DHT22;31856;-35.404;149.120;2023-03-23T09:25:48;17.60;81.90
46123;DHT22;31856;-35.404;149.120;2023-03-23T09:28:15;17.60;82.10
46123;DHT22;31856;-35.404;149.120;2023-03-23T09:30:43;17.70;82.10
46123;DHT22;31856;-35.404;149.120;2023-03-23T09:33:11;17.70;81.90
46123;DHT22;31856;-35.404;149.120;2023-03-23T09:35:39;17.70;82.00
46123;DHT22;31856;-35.404;149.120;2023-03-23T09:38:08;17.70;82.20
46123;DHT22;31856;-35.404;149.120;2023-03-23T09:40:47;17.70;82.50
46123;DHT22;31856;-35.404;149.120;2023-03-23T09:51:00;17.70;82.30
46123;DHT22;31856;-35.404;149.120;2023-03-23T09:53:32;17.70;81.80
46123;DHT22;31856;-35.404;149.120;2023-03-23T09:56:02;17.60;81.50
46123;DHT22;31856;-35.404;149.120;2023-03-23T09:58:35;17.60;81.00
46123;DHT22;31856;-35.404;149.120;2023-03-23T10:01:06;17.60;79.80
46123;DHT22;31856;-35.404;149.120;2023-03-23T10:03:40;17.60;79.50
46123;DHT22;31856;-35.404;149.120;2023-03-23T10:06:12;17.50;79.30
46123;DHT22;31856;-35.404;149.120;2023-03-23T10:08:47;17.50;79.60
46123;DHT22;31856;-35.404;149.120;2023-03-23T10:16:30;17.40;79.90
46123;DHT22;31856;-35.404;149.120;2023-03-23T10:19:04;17.30;80.10
46123;DHT22;31856;-35.404;149.120;2023-03-23T10:21:36;17.30;80.40
46123;DHT22;31856;-35.404;149.120;2023-03-23T10:24:07;17.20;80.60
46123;DHT22;31856;-35.404;149.120;2023-03-23T10:29:31;17.00;80.80
46123;DHT22;31856;-35.404;149.120;2023-03-23T10:32:14;17.00;80.90
46123;DHT22;31856;-35.404;149.120;2023-03-23T10:34:55;16.90;81.20
46123;DHT22;31856;-35.404;149.120;2023-03-23T10:37:28;16.90;81.30
46123;DHT22;31856;-35.404;149.120;2023-03-23T10:39:58;16.90;81.30
46123;DHT22;31856;-35.404;149.120;2023-03-23T10:42:30;16.80;81.30
46123;DHT22;31856;-35.404;149.120;2023-03-23T10:44:59;16.80;81.20
46123;DHT22;31856;-35.404;149.120;2023-03-23T10:47:27;16.80;81.50
46123;DHT22;31856;-35.404;149.120;2023-03-23T10:49:58;16.70;81.50
46123;DHT22;31856;-35.404;149.120;2023-03-23T10:55:01;16.60;81.40
46123;DHT22;31856;-35.404;149.120;2023-03-23T10:57:31;16.50;81.50
46123;DHT22;31856;-35.404;149.120;2023-03-23T11:00:01;16.50;81.50
46123;DHT22;31856;-35.404;149.120;2023-03-23T11:02:42;16.50;81.50
46123;DHT22;31856;-35.404;149.120;2023-03-23T11:05:18;16.40;81.50
46123;DHT22;31856;-35.404;149.120;2023-03-23T11:07:50;16.30;81.50
46123;DHT22;31856;-35.404;149.120;2023-03-23T11:12:56;16.20;81.50
46123;DHT22;31856;-35.404;149.120;2023-03-23T11:15:28;16.20;81.50
46123;DHT22;31856;-35.404;149.120;2023-03-23T11:18:06;16.20;81.50
46123;DHT22;31856;-35.404;149.120;2023-03-23T11:20:37;16.10;81.60
46123;DHT22;31856;-35.404;149.120;2023-03-23T11:23:09;16.10;81.50
46123;DHT22;31856;-35.404;149.120;2023-03-23T11:28:41;16.00;81.30
46123;DHT22;31856;-35.404;149.120;2023-03-23T11:31:09;16.00;81.10
46123;DHT22;31856;-35.404;149.120;2023-03-23T11:36:06;15.80;80.90
46123;DHT22;31856;-35.404;149.120;2023-03-23T11:38:34;15.80;81.00
46123;DHT22;31856;-35.404;149.120;2023-03-23T11:41:08;15.80;80.90
46123;DHT22;31856;-35.404;149.120;2023-03-23T11:43:37;15.80;80.80
46123;DHT22;31856;-35.404;149.120;2023-03-23T11:49:00;15.70;80.80
46123;DHT22;31856;-35.404;149.120;2023-03-23T11:51:33;15.70;80.80
46123;DHT22;31856;-35.404;149.120;2023-03-23T11:56:42;15.70;80.90
46123;DHT22;31856;-35.404;149.120;2023-03-23T11:59:11;15.60;80.80
46123;DHT22;31856;-35.404;149.120;2023-03-23T12:14:27;15.30;80.80
46123;DHT22;31856;-35.404;149.120;2023-03-23T12:22:19;15.20;80.60
46123;DHT22;31856;-35.404;149.120;2023-03-23T12:30:19;15.10;80.70
46123;DHT22;31856;-35.404;149.120;2023-03-23T12:35:49;14.90;80.60
46123;DHT22;31856;-35.404;149.120;2023-03-23T12:38:40;14.90;80.80
46123;DHT22;31856;-35.404;149.120;2023-03-23T12:41:30;14.90;80.90
46123;DHT22;31856;-35.404;149.120;2023-03-23T12:44:00;14.90;80.80
46123;DHT22;31856;-35.404;149.120;2023-03-23T12:46:48;14.90;80.80
46123;DHT22;31856;-35.404;149.120;2023-03-23T12:49:24;14.80;80.60
46123;DHT22;31856;-35.404;149.120;2023-03-23T12:56:54;14.70;80.90
46123;DHT22;31856;-35.404;149.120;2023-03-23T12:59:45;14.70;80.80
46123;DHT22;31856;-35.404;149.120;2023-03-23T13:04:46;14.70;80.80
46123;DHT22;31856;-35.404;149.120;2023-03-23T13:07:24;14.60;80.60
46123;DHT22;31856;-35.404;149.120;2023-03-23T13:10:08;14.50;80.70
46123;DHT22;31856;-35.404;149.120;2023-03-23T13:12:40;14.50;81.00
46123;DHT22;31856;-35.404;149.120;2023-03-23T13:18:15;14.40;80.90
46123;DHT22;31856;-35.404;149.120;2023-03-23T13:23:38;14.30;81.10
46123;DHT22;31856;-35.404;149.120;2023-03-23T13:26:10;14.30;81.20
46123;DHT22;31856;-35.404;149.120;2023-03-23T13:28:54;14.20;81.30
46123;DHT22;31856;-35.404;149.120;2023-03-23T13:34:39;14.20;81.00
46123;DHT22;31856;-35.404;149.120;2023-03-23T13:36:54;14.20;81.10
46123;DHT22;31856;-35.404;149.120;2023-03-23T13:39:29;14.20;81.10
46123;DHT22;31856;-35.404;149.120;2023-03-23T13:49:56;14.00;80.90
46123;DHT22;31856;-35.404;149.120;2023-03-23T14:00:34;14.00;81.20
46123;DHT22;31856;-35.404;149.120;2023-03-23T14:08:01;13.90;81.10
46123;DHT22;31856;-35.404;149.120;2023-03-23T14:10:34;13.80;81.00
46123;DHT22;31856;-35.404;149.120;2023-03-23T14:13:03;13.80;81.20
46123;DHT22;31856;-35.404;149.120;2023-03-23T14:15:31;13.80;81.50
46123;DHT22;31856;-35.404;149.120;2023-03-23T14:18:04;13.80;81.60
46123;DHT22;31856;-35.404;149.120;2023-03-23T14:20:33;13.80;81.30
46123;DHT22;31856;-35.404;149.120;2023-03-23T14:23:02;13.80;81.20
46123;DHT22;31856;-35.404;149.120;2023-03-23T14:25:30;13.70;81.50
46123;DHT22;31856;-35.404;149.120;2023-03-23T14:28:00;13.70;81.40
46123;DHT22;31856;-35.404;149.120;2023-03-23T14:30:34;13.70;81.40
46123;DHT22;31856;-35.404;149.120;2023-03-23T14:33:03;13.70;81.20
46123;DHT22;31856;-35.404;149.120;2023-03-23T14:35:32;13.70;81.10
46123;DHT22;31856;-35.404;149.120;2023-03-23T14:38:00;13.60;80.90
46123;DHT22;31856;-35.404;149.120;2023-03-23T14:40:28;13.70;80.90
46123;DHT22;31856;-35.404;149.120;2023-03-23T14:42:56;13.60;80.90
46123;DHT22;31856;-35.404;149.120;2023-03-23T14:45:24;13.50;81.00
46123;DHT22;31856;-35.404;149.120;2023-03-23T14:48:01;13.50;81.00
46123;DHT22;31856;-35.404;149.120;2023-03-23T14:50:30;13.50;81.30
46123;DHT22;31856;-35.404;149.120;2023-03-23T14:55:59;13.50;81.70
46123;DHT22;31856;-35.404;149.120;2023-03-23T14:58:27;13.40;81.80
46123;DHT22;31856;-35.404;149.120;2023-03-23T15:01:01;13.40;81.70
46123;DHT22;31856;-35.404;149.120;2023-03-23T15:03:32;13.50;81.70
46123;DHT22;31856;-35.404;149.120;2023-03-23T15:06:03;13.40;81.70
46123;DHT22;31856;-35.404;149.120;2023-03-23T15:08:32;13.40;81.60
46123;DHT22;31856;-35.404;149.120;2023-03-23T15:13:44;13.40;81.40
46123;DHT22;31856;-35.404;149.120;2023-03-23T15:16:13;13.40;81.60
46123;DHT22;31856;-35.404;149.120;2023-03-23T15:18:44;13.30;81.50
46123;DHT22;31856;-35.404;149.120;2023-03-23T15:22:14;13.30;81.60
46123;DHT22;31856;-35.404;149.120;2023-03-23T15:24:27;13.30;81.70
46123;DHT22;31856;-35.404;149.120;2023-03-23T15:27:02;13.30;81.60
46123;DHT22;31856;-35.404;149.120;2023-03-23T15:29:30;13.30;81.50
46123;DHT22;31856;-35.404;149.120;2023-03-23T15:31:57;13.30;81.40
46123;DHT22;31856;-35.404;149.120;2023-03-23T15:36:59;13.20;81.50
46123;DHT22;31856;-35.404;149.120;2023-03-23T15:39:27;13.20;81.60
46123;DHT22;31856;-35.404;149.120;2023-03-23T15:41:55;13.20;81.50
46123;DHT22;31856;-35.404;149.120;2023-03-23T15:44:30;13.20;81.40
46123;DHT22;31856;-35.404;149.120;2023-03-23T15:47:02;13.10;81.20
46123;DHT22;31856;-35.404;149.120;2023-03-23T15:49:30;13.10;81.20
46123;DHT22;31856;-35.404;149.120;2023-03-23T15:51:58;13.10;81.40
46123;DHT22;31856;-35.404;149.120;2023-03-23T15:54:28;13.10;81.70
46123;DHT22;31856;-35.404;149.120;2023-03-23T15:56:56;13.10;81.60
46123;DHT22;31856;-35.404;149.120;2023-03-23T15:59:23;13.00;81.60
46123;DHT22;31856;-35.404;149.120;2023-03-23T16:01:53;13.00;81.50
46123;DHT22;31856;-35.404;149.120;2023-03-23T16:04:22;13.00;81.70
46123;DHT22;31856;-35.404;149.120;2023-03-23T16:06:52;12.90;81.90
46123;DHT22;31856;-35.404;149.120;2023-03-23T16:09:23;13.00;81.90
46123;DHT22;31856;-35.404;149.120;2023-03-23T16:11:53;13.00;81.80
46123;DHT22;31856;-35.404;149.120;2023-03-23T16:14:23;13.00;81.80
46123;DHT22;31856;-35.404;149.120;2023-03-23T16:16:52;12.90;81.70
46123;DHT22;31856;-35.404;149.120;2023-03-23T16:19:22;12.80;81.80
46123;DHT22;31856;-35.404;149.120;2023-03-23T16:21:51;12.90;82.00
46123;DHT22;31856;-35.404;149.120;2023-03-23T16:24:21;12.90;82.00
46123;DHT22;31856;-35.404;149.120;2023-03-23T16:26:51;12.90;82.00
46123;DHT22;31856;-35.404;149.120;2023-03-23T16:29:20;12.80;82.10
46123;DHT22;31856;-35.404;149.120;2023-03-23T16:32:10;12.80;82.00
46123;DHT22;31856;-35.404;149.120;2023-03-23T16:34:39;12.80;82.10
46123;DHT22;31856;-35.404;149.120;2023-03-23T16:37:09;12.80;82.00
46123;DHT22;31856;-35.404;149.120;2023-03-23T16:39:40;12.70;82.00
46123;DHT22;31856;-35.404;149.120;2023-03-23T16:42:09;12.80;81.90
46123;DHT22;31856;-35.404;149.120;2023-03-23T16:44:38;12.80;82.10
46123;DHT22;31856;-35.404;149.120;2023-03-23T16:47:08;12.80;82.40
46123;DHT22;31856;-35.404;149.120;2023-03-23T16:49:37;12.70;82.30
46123;DHT22;31856;-35.404;149.120;2023-03-23T16:52:07;12.70;82.00
46123;DHT22;31856;-35.404;149.120;2023-03-23T16:54:36;12.70;82.00
46123;DHT22;31856;-35.404;149.120;2023-03-23T16:57:05;12.70;81.80
46123;DHT22;31856;-35.404;149.120;2023-03-23T16:59:35;12.60;81.80
46123;DHT22;31856;-35.404;149.120;2023-03-23T17:02:04;12.50;82.00
46123;DHT22;31856;-35.404;149.120;2023-03-23T17:04:34;12.50;81.90
46123;DHT22;31856;-35.404;149.120;2023-03-23T17:07:04;12.50;82.00
46123;DHT22;31856;-35.404;149.120;2023-03-23T17:09:34;12.50;82.60
46123;DHT22;31856;-35.404;149.120;2023-03-23T17:12:04;12.50;83.20
46123;DHT22;31856;-35.404;149.120;2023-03-23T17:14:33;12.50;83.50
46123;DHT22;31856;-35.404;149.120;2023-03-23T17:17:03;12.50;83.60
46123;DHT22;31856;-35.404;149.120;2023-03-23T17:19:35;12.50;83.60
46123;DHT22;31856;-35.404;149.120;2023-03-23T17:22:04;12.50;83.50
46123;DHT22;31856;-35.404;149.120;2023-03-23T17:24:34;12.50;83.10
46123;DHT22;31856;-35.404;149.120;2023-03-23T17:27:03;12.50;83.30
46123;DHT22;31856;-35.404;149.120;2023-03-23T17:29:33;12.40;83.40
46123;DHT22;31856;-35.404;149.120;2023-03-23T17:32:02;12.50;83.30
46123;DHT22;31856;-35.404;149.120;2023-03-23T17:34:31;12.50;82.90
46123;DHT22;31856;-35.404;149.120;2023-03-23T17:37:02;12.40;82.40
46123;DHT22;31856;-35.404;149.120;2023-03-23T17:39:32;12.30;82.10
46123;DHT22;31856;-35.404;149.120;2023-03-23T17:42:10;12.30;81.90
46123;DHT22;31856;-35.404;149.120;2023-03-23T17:44:39;12.30;82.00
46123;DHT22;31856;-35.404;149.120;2023-03-23T17:47:10;12.30;82.00
46123;DHT22;31856;-35.404;149.120;2023-03-23T17:49:39;12.30;82.10
46123;DHT22;31856;-35.404;149.120;2023-03-23T17:52:08;12.30;82.10
46123;DHT22;31856;-35.404;149.120;2023-03-23T17:54:38;12.30;82.30
46123;DHT22;31856;-35.404;149.120;2023-03-23T17:57:08;12.20;82.10
46123;DHT22;31856;-35.404;149.120;2023-03-23T17:59:38;12.10;81.90
46123;DHT22;31856;-35.404;149.120;2023-03-23T18:02:09;12.20;82.30
46123;DHT22;31856;-35.404;149.120;2023-03-23T18:04:39;12.10;82.50
46123;DHT22;31856;-35.404;149.120;2023-03-23T18:07:11;12.10;82.50
46123;DHT22;31856;-35.404;149.120;2023-03-23T18:09:41;12.10;82.50
46123;DHT22;31856;-35.404;149.120;2023-03-23T18:12:11;12.10;82.30
46123;DHT22;31856;-35.404;149.120;2023-03-23T18:14:42;12.10;82.10
46123;DHT22;31856;-35.404;149.120;2023-03-23T18:17:11;12.10;82.00
46123;DHT22;31856;-35.404;149.120;2023-03-23T18:19:42;12.00;81.80
46123;DHT22;31856;-35.404;149.120;2023-03-23T18:22:12;11.90;81.70
46123;DHT22;31856;-35.404;149.120;2023-03-23T18:24:41;12.00;81.90
46123;DHT22;31856;-35.404;149.120;2023-03-23T18:27:10;12.00;82.00
46123;DHT22;31856;-35.404;149.120;2023-03-23T18:29:40;11.90;82.20
46123;DHT22;31856;-35.404;149.120;2023-03-23T18:32:10;11.90;82.40
46123;DHT22;31856;-35.404;149.120;2023-03-23T18:34:40;11.90;82.20
46123;DHT22;31856;-35.404;149.120;2023-03-23T20:08:33;11.30;82.40
46123;DHT22;31856;-35.404;149.120;2023-03-23T20:11:04;11.30;82.20
46123;DHT22;31856;-35.404;149.120;2023-03-23T20:13:33;11.20;82.00
46123;DHT22;31856;-35.404;149.120;2023-03-23T20:16:04;11.20;82.00
46123;DHT22;31856;-35.404;149.120;2023-03-23T20:18:35;11.20;82.10
46123;DHT22;31856;-35.404;149.120;2023-03-23T20:21:08;11.20;82.30
46123;DHT22;31856;-35.404;149.120;2023-03-23T20:23:39;11.10;82.30
46123;DHT22;31856;-35.404;149.120;2023-03-23T20:26:13;11.10;82.20
46123;DHT22;31856;-35.404;149.120;2023-03-23T20:28:43;11.10;82.20
46123;DHT22;31856;-35.404;149.120;2023-03-23T20:31:19;11.10;82.40
46123;DHT22;31856;-35.404;149.120;2023-03-23T20:33:52;11.10;82.80
46123;DHT22;31856;-35.404;149.120;2023-03-23T20:36:31;11.10;82.70
46123;DHT22;31856;-35.404;149.120;2023-03-23T20:39:03;11.20;82.90
46123;DHT22;31856;-35.404;149.120;2023-03-23T20:41:34;11.10;83.00
46123;DHT22;31856;-35.404;149.120;2023-03-23T20:44:11;11.20;83.30
46123;DHT22;31856;-35.404;149.120;2023-03-23T20:46:44;11.20;83.40
46123;DHT22;31856;-35.404;149.120;2023-03-23T20:49:16;11.20;83.50
46123;DHT22;31856;-35.404;149.120;2023-03-23T20:51:46;11.20;83.70
46123;DHT22;31856;-35.404;149.120;2023-03-23T20:54:16;11.30;83.70
46123;DHT22;31856;-35.404;149.120;2023-03-23T20:56:47;11.30;83.70
46123;DHT22;31856;-35.404;149.120;2023-03-23T20:59:17;11.30;83.80
46123;DHT22;31856;-35.404;149.120;2023-03-23T21:01:48;11.40;84.10
46123;DHT22;31856;-35.404;149.120;2023-03-23T21:04:19;11.40;84.30
46123;DHT22;31856;-35.404;149.120;2023-03-23T21:06:50;11.40;84.40
46123;DHT22;31856;-35.404;149.120;2023-03-23T21:09:20;11.50;84.30
46123;DHT22;31856;-35.404;149.120;2023-03-23T21:11:50;11.50;84.50
46123;DHT22;31856;-35.404;149.120;2023-03-23T21:14:20;11.60;84.80
46123;DHT22;31856;-35.404;149.120;2023-03-23T21:16:49;11.70;85.00
46123;DHT22;31856;-35.404;149.120;2023-03-23T21:19:20;11.70;85.10
46123;DHT22;31856;-35.404;149.120;2023-03-23T21:21:49;11.80;85.20
46123;DHT22;31856;-35.404;149.120;2023-03-23T21:24:26;11.80;85.90
46123;DHT22;31856;-35.404;149.120;2023-03-23T21:26:57;11.90;86.90
46123;DHT22;31856;-35.404;149.120;2023-03-23T21:29:27;12.00;87.00
46123;DHT22;31856;-35.404;149.120;2023-03-23T21:31:57;12.00;86.80
46123;DHT22;31856;-35.404;149.120;2023-03-23T21:34:35;12.10;86.70
46123;DHT22;31856;-35.404;149.120;2023-03-23T21:37:05;12.00;86.10
46123;DHT22;31856;-35.404;149.120;2023-03-23T21:39:36;12.10;85.80
46123;DHT22;31856;-35.404;149.120;2023-03-23T21:42:05;12.20;85.50
46123;DHT22;31856;-35.404;149.120;2023-03-23T21:44:35;12.30;85.30
46123;DHT22;31856;-35.404;149.120;2023-03-23T21:47:06;12.30;85.20
46123;DHT22;31856;-35.404;149.120;2023-03-23T21:49:36;12.40;85.20
46123;DHT22;31856;-35.404;149.120;2023-03-23T21:52:07;12.50;85.20
46123;DHT22;31856;-35.404;149.120;2023-03-23T21:54:36;12.60;85.10
46123;DHT22;31856;-35.404;149.120;2023-03-23T21:57:06;12.60;84.80
46123;DHT22;31856;-35.404;149.120;2023-03-23T21:59:36;12.70;84.90
46123;DHT22;31856;-35.404;149.120;2023-03-23T22:02:06;12.80;85.00